Time;durP1;ratioP1;P1;durP2;ratioP2;P2;SDS_P1;SDS_P2;PMS_P1;PMS_P2;Temp;Humidity;BMP_temperature;BMP_pressure;BME280_temperature;BME280_humidity;BME280_pressure;Samples;Min_cycle;Max_cycle;Signal;HPM_P1;HPM_P2
2023/11/06 00:02:04;;;;;;;62.50;40.53;;;11.10;99.90;;;;;;5076069;28;20403;-77
2023/11/06 00:04:32;;;;;;;58.75;36.72;;;11.10;99.90;;;;;;5076374;28;20419;-78
2023/11/06 00:06:58;;;;;;;62.13;39.30;;;11.10;99.90;;;;;;5076644;28;20156;-77
2023/11/06 00:09:24;;;;;;;60.35;36.72;;;11.10;99.90;;;;;;5076499;28;20176;-78
2023/11/06 00:11:50;;;;;;;63.77;41.23;;;11.10;99.90;;;;;;5076361;28;20290;-78
2023/11/06 00:14:16;;;;;;;59.50;39.10;;;11.10;99.90;;;;;;5076391;28;20982;-78
2023/11/06 00:16:43;;;;;;;57.72;33.95;;;11.00;99.90;;;;;;5076315;28;20169;-77
2023/11/06 00:19:08;;;;;;;67.47;45.72;;;11.00;99.90;;;;;;5076149;28;20202;-77
2023/11/06 00:21:35;;;;;;;63.07;47.63;;;11.00;99.90;;;;;;5058260;28;20161;-78
2023/11/06 00:24:01;;;;;;;61.58;41.80;;;11.00;99.90;;;;;;5076552;28;20771;-78
2023/11/06 00:26:27;;;;;;;67.45;41.38;;;11.00;99.90;;;;;;5076033;28;20168;-77
2023/11/06 00:28:53;;;;;;;60.73;41.10;;;10.90;99.90;;;;;;5075897;28;20184;-77
2023/11/06 00:31:19;;;;;;;62.13;43.78;;;11.00;99.90;;;;;;5076021;28;20184;-77
2023/11/06 00:33:45;;;;;;;60.40;39.67;;;10.90;99.90;;;;;;5075903;28;20220;-77
2023/11/06 00:36:21;;;;;;;62.33;39.70;;;10.90;99.90;;;;;;5075983;28;20176;-78
2023/11/06 00:38:46;;;;;;;67.00;42.95;;;10.80;99.90;;;;;;5075772;28;20199;-78
2023/11/06 00:41:12;;;;;;;69.20;45.83;;;10.70;99.90;;;;;;5075802;28;20161;-77
2023/11/06 00:43:38;;;;;;;64.73;47.87;;;10.70;99.90;;;;;;5075759;28;20188;-77
2023/11/06 00:46:04;;;;;;;64.68;46.22;;;10.60;99.90;;;;;;5075808;28;20175;-77
2023/11/06 00:48:29;;;;;;;64.33;49.73;;;10.60;99.90;;;;;;5057834;28;20172;-78
2023/11/06 00:50:55;;;;;;;64.27;48.50;;;10.60;99.90;;;;;;5076261;28;20169;-78
2023/11/06 00:53:21;;;;;;;65.10;47.07;;;10.60;99.90;;;;;;5075385;28;20188;-77
2023/11/06 00:55:47;;;;;;;62.37;41.37;;;10.70;99.90;;;;;;5075719;28;20172;-77
2023/11/06 00:58:16;;;;;;;64.60;42.40;;;10.70;99.90;;;;;;5075437;28;20439;-77
2023/11/06 01:00:42;;;;;;;64.15;49.30;;;10.70;99.90;;;;;;5075867;28;20157;-78
2023/11/06 01:03:08;;;;;;;72.38;51.38;;;10.60;99.90;;;;;;5075591;28;20180;-77
2023/11/06 01:05:33;;;;;;;67.20;49.27;;;10.60;99.90;;;;;;5057251;28;20160;-77
2023/11/06 01:08:04;;;;;;;64.27;48.17;;;10.50;99.90;;;;;;5075589;28;20247;-77
2023/11/06 01:10:30;;;;;;;71.45;50.67;;;10.50;99.90;;;;;;5075634;28;20618;-77
2023/11/06 01:12:56;;;;;;;68.43;50.67;;;10.50;99.90;;;;;;5074790;28;20184;-78
2023/11/06 01:15:22;;;;;;;64.20;49.40;;;10.60;99.90;;;;;;5057163;28;20542;-78
2023/11/06 01:17:47;;;;;;;64.70;44.60;;;10.70;99.90;;;;;;5075249;28;20184;-77
2023/11/06 01:20:13;;;;;;;65.03;46.30;;;10.60;99.90;;;;;;5075053;28;20161;-78
2023/11/06 01:22:39;;;;;;;68.13;50.70;;;10.70;99.90;;;;;;5075034;28;20229;-78
2023/11/06 01:25:05;;;;;;;64.33;47.17;;;10.80;99.90;;;;;;5074978;28;20161;-77
2023/11/06 01:27:31;;;;;;;62.60;43.50;;;10.80;99.90;;;;;;5074737;28;20218;-77
2023/11/06 01:29:56;;;;;;;64.00;44.33;;;10.90;99.90;;;;;;5074611;28;20176;-78
2023/11/06 01:32:23;;;;;;;60.33;41.63;;;10.90;99.90;;;;;;5074933;28;20187;-77
2023/11/06 01:34:49;;;;;;;63.22;42.83;;;10.90;99.90;;;;;;5075495;28;20655;-77
2023/11/06 01:37:14;;;;;;;60.17;36.40;;;11.00;99.90;;;;;;5074676;28;20165;-77
2023/11/06 01:39:40;;;;;;;60.23;36.93;;;11.00;99.90;;;;;;5074567;28;20580;-77
2023/11/06 01:42:06;;;;;;;61.20;39.33;;;11.00;99.90;;;;;;5074842;28;20335;-77
2023/11/06 01:44:31;;;;;;;58.93;39.80;;;11.00;99.90;;;;;;5074428;28;20180;-78
2023/11/06 01:46:58;;;;;;;61.30;42.53;;;11.00;99.90;;;;;;5074456;28;20895;-77
2023/11/06 01:49:24;;;;;;;61.22;42.08;;;11.00;99.90;;;;;;5074728;28;20592;-77
2023/11/06 01:51:50;;;;;;;61.10;40.72;;;11.10;99.90;;;;;;5074349;28;20225;-78
2023/11/06 01:54:17;;;;;;;61.60;36.65;;;11.00;99.90;;;;;;5074276;28;20610;-78
2023/11/06 01:56:43;;;;;;;60.40;39.72;;;11.10;99.90;;;;;;5074223;28;20660;-78
2023/11/06 01:59:09;;;;;;;60.85;42.42;;;11.20;99.90;;;;;;5074088;28;20188;-78
2023/11/06 02:01:41;;;;;;;58.13;37.27;;;11.10;99.90;;;;;;5074090;28;20171;-78
2023/11/06 02:04:12;;;;;;;59.00;39.42;;;11.10;99.90;;;;;;5074242;28;20245;-78
2023/11/06 02:06:37;;;;;;;58.55;37.17;;;11.20;99.90;;;;;;5074390;28;20149;-78
2023/11/06 02:09:03;;;;;;;59.97;40.43;;;11.20;99.90;;;;;;5073993;28;20205;-78
2023/11/06 02:11:29;;;;;;;56.28;35.20;;;11.20;99.90;;;;;;5074007;28;20175;-78
2023/11/06 02:13:55;;;;;;;61.30;34.77;;;11.20;99.90;;;;;;5074084;28;20681;-78
2023/11/06 02:16:21;;;;;;;67.77;40.63;;;11.20;99.90;;;;;;5073868;28;20409;-77
2023/11/06 02:18:46;;;;;;;58.67;36.23;;;11.20;99.90;;;;;;5073931;28;20188;-78
2023/11/06 02:21:12;;;;;;;61.90;40.13;;;11.20;99.90;;;;;;5056189;28;20168;-78
2023/11/06 02:23:38;;;;;;;59.17;40.47;;;11.10;99.90;;;;;;5073303;28;20188;-77
2023/11/06 02:26:09;;;;;;;59.57;37.50;;;11.10;99.90;;;;;;5073851;28;20172;-77
2023/11/06 02:28:35;;;;;;;61.78;39.78;;;11.10;99.90;;;;;;5074025;28;20547;-78
2023/11/06 02:31:01;;;;;;;62.83;41.45;;;11.10;99.90;;;;;;5055909;28;20672;-77
2023/11/06 02:33:27;;;;;;;60.10;43.27;;;11.10;99.90;;;;;;5073706;28;20286;-78
2023/11/06 02:35:52;;;;;;;59.57;42.03;;;11.10;99.90;;;;;;5073629;28;20169;-78
2023/11/06 02:38:18;;;;;;;63.43;46.07;;;11.00;99.90;;;;;;5073455;28;20188;-77
2023/11/06 02:40:44;;;;;;;65.00;44.67;;;11.00;99.90;;;;;;5073402;28;20630;-77
2023/11/06 02:43:10;;;;;;;61.63;41.93;;;11.00;99.90;;;;;;5073424;28;20663;-77
2023/11/06 02:45:36;;;;;;;67.07;49.33;;;10.90;99.90;;;;;;5073978;28;20164;-78
2023/11/06 02:48:02;;;;;;;64.43;47.55;;;10.90;99.90;;;;;;5074190;28;20669;-77
2023/11/06 02:50:27;;;;;;;64.33;48.50;;;10.90;99.90;;;;;;5055409;28;20176;-77
2023/11/06 02:52:58;;;;;;;64.73;44.30;;;10.90;99.90;;;;;;5055250;28;20607;-77
2023/11/06 02:55:24;;;;;;;63.35;50.67;;;10.90;99.90;;;;;;5073560;28;20198;-77
2023/11/06 02:57:49;;;;;;;66.13;48.42;;;10.90;99.90;;;;;;5073448;28;20200;-77
2023/11/06 03:00:15;;;;;;;63.83;45.53;;;10.90;99.90;;;;;;5073284;28;20508;-77
2023/11/06 03:02:41;;;;;;;63.17;44.73;;;10.90;99.90;;;;;;5055233;28;20180;-78
2023/11/06 03:05:07;;;;;;;62.20;47.33;;;10.90;99.90;;;;;;5073177;28;20399;-77
2023/11/06 03:07:33;;;;;;;106.78;98.30;;;11.00;99.90;;;;;;5073847;28;20164;-78
2023/11/06 03:09:59;;;;;;;63.00;46.95;;;11.00;99.90;;;;;;5055156;28;20173;-77
2023/11/06 03:12:25;;;;;;;62.47;41.47;;;11.10;99.90;;;;;;5073150;28;20263;-78
2023/11/06 03:14:54;;;;;;;65.67;52.00;;;11.10;99.90;;;;;;5073113;28;20422;-78
2023/11/06 03:17:20;;;;;;;63.00;45.85;;;11.10;99.90;;;;;;5073202;28;20440;-77
2023/11/06 03:19:46;;;;;;;61.70;43.67;;;11.00;99.90;;;;;;5073756;28;20169;-78
2023/11/06 03:22:12;;;;;;;61.43;45.07;;;11.00;99.90;;;;;;5073149;28;20568;-78
2023/11/06 03:24:38;;;;;;;61.07;45.03;;;11.10;99.90;;;;;;5073031;28;20673;-78
2023/11/06 03:27:03;;;;;;;70.82;48.05;;;11.00;99.90;;;;;;5073044;28;20456;-77
2023/11/06 03:29:29;;;;;;;62.77;46.23;;;10.90;99.90;;;;;;5072901;28;20188;-77
2023/11/06 03:31:55;;;;;;;61.30;46.40;;;11.00;99.90;;;;;;5073287;28;20171;-77
2023/11/06 03:34:20;;;;;;;58.40;42.67;;;11.00;99.90;;;;;;5073538;28;20297;-77
2023/11/06 03:36:46;;;;;;;58.17;37.00;;;10.90;99.90;;;;;;5076797;28;20164;-77
2023/11/06 03:39:13;;;;;;;59.10;39.47;;;10.90;99.90;;;;;;5076999;28;20195;-78
2023/11/06 03:41:39;;;;;;;62.38;41.97;;;10.80;99.90;;;;;;5077177;28;20402;-77
2023/11/06 03:44:05;;;;;;;64.00;47.40;;;10.80;99.90;;;;;;5076926;28;20181;-77
2023/11/06 03:46:31;;;;;;;61.65;44.13;;;10.80;99.90;;;;;;5076996;28;20211;-77
2023/11/06 03:48:57;;;;;;;62.22;37.25;;;10.80;99.90;;;;;;5077369;28;20164;-78
2023/11/06 03:51:23;;;;;;;60.37;33.97;;;10.80;99.90;;;;;;5076876;28;20179;-77
2023/11/06 03:53:48;;;;;;;62.53;43.10;;;10.80;99.90;;;;;;5076491;28;20283;-77
2023/11/06 03:56:14;;;;;;;62.90;43.07;;;10.70;99.90;;;;;;5076863;28;20398;-77
2023/11/06 03:58:40;;;;;;;63.07;37.87;;;10.70;99.90;;;;;;5076678;28;20188;-78
2023/11/06 04:01:05;;;;;;;59.33;39.00;;;10.70;99.90;;;;;;5076469;28;20172;-78
2023/11/06 04:03:31;;;;;;;61.27;39.97;;;10.70;99.90;;;;;;5076634;28;20177;-77
2023/11/06 04:05:58;;;;;;;61.17;42.17;;;10.70;99.90;;;;;;5076438;28;20652;-77
2023/11/06 04:08:24;;;;;;;61.17;42.00;;;10.70;99.90;;;;;;5076409;28;20510;-78
2023/11/06 04:10:53;;;;;;;65.23;46.10;;;10.70;99.90;;;;;;5058616;28;20171;-77
2023/11/06 04:13:18;;;;;;;63.10;41.47;;;10.60;99.90;;;;;;5076144;28;20185;-78
2023/11/06 04:15:44;;;;;;;69.53;48.53;;;10.70;99.90;;;;;;5076227;28;20161;-77
2023/11/06 04:18:10;;;;;;;64.40;51.60;;;10.60;99.90;;;;;;5076073;28;20191;-77
2023/11/06 04:20:36;;;;;;;63.77;42.73;;;10.60;99.90;;;;;;5076700;28;20399;-78
2023/11/06 04:23:02;;;;;;;59.60;35.40;;;10.60;99.90;;;;;;5075937;28;20279;-78
2023/11/06 04:25:28;;;;;;;61.60;39.80;;;10.70;99.90;;;;;;5075928;28;20406;-77
2023/11/06 04:27:53;;;;;;;63.53;38.67;;;10.70;99.90;;;;;;5076655;28;20188;-77
2023/11/06 04:30:19;;;;;;;60.23;38.03;;;10.80;99.90;;;;;;5075859;28;20653;-77
2023/11/06 04:32:45;;;;;;;58.03;35.10;;;10.70;99.90;;;;;;5075834;28;20172;-77
2023/11/06 04:35:11;;;;;;;60.55;35.25;;;10.70;99.90;;;;;;5076186;28;20161;-78
2023/11/06 04:37:37;;;;;;;60.30;40.90;;;10.80;99.90;;;;;;5075706;28;20191;-78
2023/11/06 04:40:06;;;;;;;67.60;38.40;;;10.80;99.90;;;;;;5075891;28;20676;-78
2023/11/06 04:42:33;;;;;;;62.08;40.25;;;10.80;99.90;;;;;;5075728;28;20582;-77
2023/11/06 04:44:58;;;;;;;63.95;41.60;;;10.80;99.90;;;;;;5075513;28;20164;-78
2023/11/06 04:47:24;;;;;;;60.63;37.47;;;10.80;99.90;;;;;;5075082;28;20171;-78
2023/11/06 04:49:50;;;;;;;66.63;47.47;;;10.80;99.90;;;;;;5075464;28;20165;-77
2023/11/06 04:52:15;;;;;;;60.93;36.53;;;10.80;99.90;;;;;;5076017;28;20160;-78
2023/11/06 04:54:41;;;;;;;64.90;40.73;;;10.80;99.90;;;;;;5075445;28;20382;-77
2023/11/06 04:57:10;;;;;;;64.23;44.47;;;10.80;99.90;;;;;;5075610;28;20161;-77
2023/11/06 04:59:37;;;;;;;73.70;47.40;;;10.80;99.90;;;;;;5075608;28;20435;-78
2023/11/06 05:02:06;;;;;;;77.03;60.38;;;10.80;99.90;;;;;;5075655;28;20206;-78
2023/11/06 05:04:32;;;;;;;67.13;44.20;;;10.70;99.90;;;;;;5075428;28;20204;-77
2023/11/06 05:07:02;;;;;;;72.47;51.23;;;10.70;99.90;;;;;;5075432;28;20161;-78
2023/11/06 05:09:28;;;;;;;68.40;51.35;;;10.70;99.90;;;;;;5057268;28;20165;-77
2023/11/06 05:11:54;;;;;;;67.43;48.20;;;10.60;99.90;;;;;;5075223;28;20185;-77
2023/11/06 05:14:20;;;;;;;69.20;47.53;;;10.60;99.90;;;;;;5075142;28;20231;-78
2023/11/06 05:16:45;;;;;;;72.07;51.17;;;10.60;99.90;;;;;;5075537;28;20526;-78
2023/11/06 05:19:14;;;;;;;70.57;50.63;;;10.70;99.90;;;;;;5075035;28;20443;-78
2023/11/06 05:21:42;;;;;;;69.07;45.33;;;10.70;99.90;;;;;;5075070;28;20630;-78
2023/11/06 05:24:08;;;;;;;72.65;47.38;;;10.80;99.90;;;;;;5075031;28;20557;-77
2023/11/06 05:26:34;;;;;;;67.97;44.73;;;10.80;99.90;;;;;;5075513;28;20161;-78
2023/11/06 05:29:00;;;;;;;62.13;41.47;;;10.70;99.90;;;;;;5075776;28;20224;-77
2023/11/06 05:31:29;;;;;;;68.03;43.20;;;10.70;99.90;;;;;;5075125;28;20168;-78
2023/11/06 05:33:55;;;;;;;71.88;51.20;;;10.60;99.90;;;;;;5075748;28;20419;-77
2023/11/06 05:36:21;;;;;;;62.85;43.85;;;10.60;99.90;;;;;;5075292;28;20322;-78
2023/11/06 05:38:47;;;;;;;70.23;51.93;;;10.50;99.90;;;;;;5074954;28;20716;-78
2023/11/06 05:41:12;;;;;;;65.50;44.80;;;10.50;99.90;;;;;;5074606;28;20161;-78
2023/11/06 05:43:49;;;;;;;63.60;41.80;;;10.50;99.90;;;;;;5075029;28;20362;-78
2023/11/06 05:46:18;;;;;;;67.60;45.13;;;10.50;99.90;;;;;;5074771;28;20395;-78
2023/11/06 05:48:44;;;;;;;67.43;48.35;;;10.50;99.90;;;;;;5056061;28;20176;-78
2023/11/06 05:51:09;;;;;;;72.53;47.67;;;10.40;99.90;;;;;;5074226;28;20642;-78
2023/11/06 05:53:35;;;;;;;65.10;47.97;;;10.40;99.90;;;;;;5074689;28;20220;-78
2023/11/06 05:56:01;;;;;;;74.00;56.77;;;10.40;99.90;;;;;;5074585;28;20165;-78
2023/11/06 05:58:27;;;;;;;69.50;49.37;;;10.40;99.90;;;;;;5073120;28;20267;-78
2023/11/06 06:00:52;;;;;;;62.58;42.72;;;10.40;99.90;;;;;;5074643;28;20152;-77
2023/11/06 06:03:20;;;;;;;64.87;49.30;;;10.40;99.90;;;;;;5074183;28;20695;-78
2023/11/06 06:05:46;;;;;;;65.63;40.83;;;10.30;99.90;;;;;;5074111;28;20188;-78
2023/11/06 06:08:13;;;;;;;73.73;59.20;;;10.30;99.90;;;;;;5074253;28;20215;-78
2023/11/06 06:10:39;;;;;;;65.32;44.28;;;10.20;99.90;;;;;;5074292;28;20402;-78
2023/11/06 06:13:05;;;;;;;72.60;48.95;;;10.20;99.90;;;;;;5073826;28;20215;-78
2023/11/06 06:15:31;;;;;;;70.07;50.93;;;10.30;99.90;;;;;;5073995;28;20580;-78
2023/11/06 06:17:57;;;;;;;66.10;45.20;;;10.10;99.90;;;;;;5073751;28;20963;-78
2023/11/06 06:20:22;;;;;;;70.80;50.93;;;10.10;99.90;;;;;;5074027;28;20164;-78
2023/11/06 06:22:58;;;;;;;68.73;54.03;;;10.10;99.90;;;;;;5073780;28;20704;-77
2023/11/06 06:25:24;;;;;;;65.32;47.42;;;10.10;99.90;;;;;;5073490;28;20618;-78
2023/11/06 06:27:50;;;;;;;71.50;42.40;;;10.00;99.90;;;;;;5073622;28;20211;-78
2023/11/06 06:30:16;;;;;;;67.03;42.77;;;10.00;99.90;;;;;;5073344;28;20203;-77
2023/11/06 06:32:42;;;;;;;72.83;45.03;;;9.90;99.90;;;;;;5073488;28;20226;-77
2023/11/06 06:35:08;;;;;;;74.25;51.30;;;10.00;99.90;;;;;;5073633;28;20179;-77
2023/11/06 06:37:34;;;;;;;68.35;46.30;;;10.00;99.90;;;;;;5073302;28;20210;-78
2023/11/06 06:40:00;;;;;;;68.37;46.27;;;9.90;99.90;;;;;;5073356;28;20188;-77
2023/11/06 06:42:26;;;;;;;69.20;50.70;;;10.00;99.90;;;;;;5073252;28;20169;-78
2023/11/06 06:44:51;;;;;;;72.97;56.00;;;9.90;99.90;;;;;;5073767;28;20526;-77
2023/11/06 06:47:17;;;;;;;72.83;49.17;;;9.90;99.90;;;;;;5073536;28;20634;-77
2023/11/06 06:49:43;;;;;;;64.00;41.08;;;9.90;99.90;;;;;;5073452;28;20168;-78
2023/11/06 06:52:09;;;;;;;66.53;50.83;;;9.90;99.90;;;;;;5073292;28;20191;-78
2023/11/06 06:54:36;;;;;;;68.57;46.00;;;9.80;99.90;;;;;;5073157;28;20330;-77
2023/11/06 06:57:03;;;;;;;73.10;46.42;;;9.90;99.90;;;;;;5073296;28;20161;-77
2023/11/06 06:59:29;;;;;;;68.80;47.17;;;9.90;99.90;;;;;;5073225;28;20184;-77
2023/11/06 07:01:56;;;;;;;71.65;46.22;;;9.90;99.90;;;;;;5073317;28;20168;-77
2023/11/06 07:04:23;;;;;;;67.88;45.55;;;10.00;99.90;;;;;;5073169;28;20180;-77
2023/11/06 07:06:49;;;;;;;68.50;47.22;;;9.90;99.90;;;;;;5073318;28;20167;-77
2023/11/06 07:09:15;;;;;;;65.17;47.47;;;10.00;99.90;;;;;;5072855;28;20156;-77
2023/11/06 07:11:40;;;;;;;65.10;42.30;;;10.00;99.90;;;;;;5073338;28;20437;-77
2023/11/06 07:14:06;;;;;;;62.20;43.83;;;10.00;99.90;;;;;;5054999;28;20680;-77
2023/11/06 07:16:31;;;;;;;66.60;45.73;;;10.00;99.90;;;;;;5073264;28;20238;-78
2023/11/06 07:18:57;;;;;;;66.00;49.83;;;10.00;99.90;;;;;;5073086;28;20267;-78
2023/11/06 07:21:32;;;;;;;64.03;43.03;;;9.90;99.90;;;;;;5055089;28;20169;-78
2023/11/06 07:23:57;;;;;;;65.22;46.53;;;9.90;99.90;;;;;;5054895;28;20212;-77
2023/11/06 07:26:23;;;;;;;69.20;47.60;;;9.90;99.90;;;;;;5072848;28;20195;-77
2023/11/06 07:28:49;;;;;;;62.80;43.57;;;9.90;99.90;;;;;;5072663;28;20592;-77
2023/11/06 07:31:14;;;;;;;65.30;39.67;;;10.00;99.90;;;;;;5073169;28;20557;-78
2023/11/06 07:33:40;;;;;;;68.87;36.77;;;10.10;99.90;;;;;;5054842;28;20439;-78
2023/11/06 07:36:07;;;;;;;69.97;41.28;;;10.10;99.90;;;;;;5054708;28;20264;-77
2023/11/06 07:41:54;;;;;;;61.03;30.33;;;10.10;99.90;;;;;;5073074;28;20522;-77
2023/11/06 07:44:20;;;;;;;61.37;41.03;;;10.10;99.90;;;;;;5072840;28;20180;-77
2023/11/06 07:46:46;;;;;;;62.20;43.03;;;10.10;99.60;;;;;;5054715;28;20709;-78
2023/11/06 07:49:13;;;;;;;67.83;44.67;;;10.10;97.70;;;;;;5054776;28;20187;-78
2023/11/06 07:51:39;;;;;;;63.15;38.63;;;10.10;97.90;;;;;;5072891;28;20192;-77
2023/11/06 07:54:04;;;;;;;60.17;33.90;;;10.20;99.10;;;;;;5072579;28;20651;-78
2023/11/06 07:56:30;;;;;;;63.17;40.80;;;10.20;96.00;;;;;;5073166;28;20169;-77
2023/11/06 07:58:56;;;;;;;62.43;39.33;;;10.30;94.50;;;;;;5072612;28;20673;-77
2023/11/06 08:01:22;;;;;;;59.97;37.33;;;10.20;95.30;;;;;;5072641;28;20531;-77
2023/11/06 08:03:47;;;;;;;63.90;40.50;;;10.30;95.40;;;;;;5072579;28;20183;-77
2023/11/06 08:06:13;;;;;;;63.00;38.23;;;10.30;94.80;;;;;;5072584;28;20156;-77
2023/11/06 08:08:40;;;;;;;59.43;33.60;;;10.40;94.80;;;;;;5072937;28;20160;-77
2023/11/06 08:11:06;;;;;;;63.22;38.22;;;10.40;91.10;;;;;;5073115;28;20429;-77
2023/11/06 08:13:32;;;;;;;60.57;33.90;;;10.40;90.70;;;;;;5072687;28;20219;-77
2023/11/06 08:15:58;;;;;;;61.40;40.13;;;10.50;90.10;;;;;;5072520;28;20210;-77
2023/11/06 08:18:25;;;;;;;68.23;37.43;;;10.40;89.60;;;;;;5072489;28;20666;-77
2023/11/06 08:20:51;;;;;;;64.45;39.70;;;10.50;85.80;;;;;;5072407;28;20172;-77
2023/11/06 08:23:17;;;;;;;60.23;33.17;;;10.50;85.70;;;;;;5075613;28;20241;-77
2023/11/06 08:25:43;;;;;;;60.45;30.70;;;10.60;87.30;;;;;;5076471;28;20490;-77
2023/11/06 08:28:09;;;;;;;61.77;32.97;;;10.60;78.80;;;;;;5075974;28;20200;-77
2023/11/06 08:30:34;;;;;;;60.00;30.50;;;10.60;78.00;;;;;;5076032;28;20618;-78
2023/11/06 08:33:00;;;;;;;60.40;30.30;;;10.70;69.60;;;;;;5076096;28;20216;-78
2023/11/06 08:35:25;;;;;;;61.37;37.67;;;10.70;73.70;;;;;;5076051;28;20173;-77
2023/11/06 08:37:51;;;;;;;59.20;31.37;;;10.80;79.10;;;;;;5075724;28;20177;-77
2023/11/06 08:40:17;;;;;;;56.67;30.87;;;10.80;76.90;;;;;;5075532;28;20161;-77
2023/11/06 08:42:44;;;;;;;54.27;26.83;;;10.80;72.90;;;;;;5075904;28;20234;-77
2023/11/06 08:45:10;;;;;;;59.80;33.72;;;10.90;65.70;;;;;;5075547;28;20165;-77
2023/11/06 08:47:36;;;;;;;54.80;27.17;;;10.90;66.00;;;;;;5075421;28;20537;-77
2023/11/06 08:50:02;;;;;;;56.00;29.03;;;10.90;69.30;;;;;;5075475;28;20413;-77
2023/11/06 08:52:27;;;;;;;55.27;27.37;;;11.00;65.10;;;;;;5075301;28;20157;-77
2023/11/06 08:54:53;;;;;;;55.50;25.63;;;11.00;60.90;;;;;;5057525;28;20836;-78
2023/11/06 08:57:19;;;;;;;50.23;17.67;;;11.10;54.70;;;;;;5075667;28;20640;-77
2023/11/06 08:59:45;;;;;;;52.60;21.00;;;11.20;54.10;;;;;;5075376;28;20189;-77
2023/11/06 09:02:11;;;;;;;55.92;23.17;;;11.20;51.50;;;;;;5075483;28;20172;-77
2023/11/06 09:04:40;;;;;;;54.80;24.07;;;11.30;49.20;;;;;;5057777;28;20715;-77
2023/11/06 09:07:10;;;;;;;53.70;23.15;;;11.30;45.60;;;;;;5075421;28;20187;-77
2023/11/06 09:09:35;;;;;;;62.67;25.05;;;11.30;45.50;;;;;;5075566;28;20221;-77
2023/11/06 09:12:01;;;;;;;52.93;20.83;;;11.40;43.20;;;;;;5075382;28;20252;-77
2023/11/06 09:14:27;;;;;;;53.50;21.83;;;11.50;40.80;;;;;;5075522;28;20195;-78
2023/11/06 09:16:53;;;;;;;55.30;22.50;;;11.50;40.30;;;;;;5075061;28;20167;-77
2023/11/06 09:19:18;;;;;;;56.10;19.90;;;11.50;40.90;;;;;;5074857;28;20199;-78
2023/11/06 09:21:44;;;;;;;50.27;20.00;;;11.60;39.10;;;;;;5074807;28;20156;-77
2023/11/06 09:24:11;;;;;;;56.77;21.73;;;11.70;30.00;;;;;;5074791;28;20439;-78
2023/11/06 09:26:37;;;;;;;50.78;18.00;;;11.80;29.90;;;;;;5074849;28;20160;-78
2023/11/06 09:29:04;;;;;;;49.80;18.63;;;11.80;28.90;;;;;;5074676;28;20668;-77
2023/11/06 09:31:33;;;;;;;49.30;16.25;;;11.90;25.20;;;;;;5075000;28;20634;-78
2023/11/06 09:33:59;;;;;;;54.17;19.48;;;11.90;26.70;;;;;;5074435;28;20188;-78
2023/11/06 09:36:24;;;;;;;54.77;18.37;;;12.00;25.60;;;;;;5074552;28;20542;-78
2023/11/06 09:38:50;;;;;;;49.73;14.57;;;12.10;17.20;;;;;;5056517;28;20199;-78
2023/11/06 09:41:16;;;;;;;54.57;18.80;;;12.20;11.10;;;;;;5074778;28;20206;-78
2023/11/06 09:43:42;;;;;;;53.17;16.10;;;12.30;12.80;;;;;;5074673;28;20422;-78
2023/11/06 09:46:09;;;;;;;51.85;20.63;;;12.40;8.90;;;;;;5074523;28;20164;-77
2023/11/06 09:48:36;;;;;;;51.08;15.25;;;12.50;16.00;;;;;;5074373;28;20218;-77
2023/11/06 09:51:12;;;;;;;54.15;18.45;;;12.50;3.10;;;;;;5074438;28;20172;-77
2023/11/06 09:53:40;;;;;;;52.40;16.00;;;12.40;6.10;;;;;;5074465;28;20298;-77
2023/11/06 09:56:07;;;;;;;53.17;18.23;;;12.50;5.20;;;;;;5074266;28;20204;-77
2023/11/06 09:58:35;;;;;;;52.13;20.55;;;12.60;2.00;;;;;;5074443;28;20684;-78
2023/11/06 10:01:00;;;;;;;53.50;17.67;;;12.60;1.60;;;;;;5074156;28;20168;-78
2023/11/06 10:03:26;;;;;;;51.57;15.20;;;12.70;1.40;;;;;;5073982;28;20180;-78
2023/11/06 10:05:52;;;;;;;51.00;17.70;;;12.80;4.90;;;;;;5074013;28;20157;-77
2023/11/06 10:08:30;;;;;;;46.97;15.77;;;12.90;1.00;;;;;;5074028;28;20557;-77
2023/11/06 10:11:01;;;;;;;46.08;13.32;;;13.00;1.00;;;;;;5073919;28;20318;-77
2023/11/06 10:13:30;;;;;;;47.47;15.40;;;13.20;1.00;;;;;;5073882;28;20208;-78
2023/11/06 10:16:15;;;;;;;48.13;13.52;;;13.30;1.00;;;;;;5073741;28;20164;-77
2023/11/06 10:18:41;;;;;;;60.20;10.82;;;13.40;1.00;;;;;;5074278;28;20185;-78
2023/11/06 10:21:07;;;;;;;50.67;9.63;;;13.40;1.00;;;;;;5073911;28;20159;-77
2023/11/06 10:23:35;;;;;;;44.53;10.17;;;13.40;1.00;;;;;;5073588;28;20201;-78
2023/11/06 10:26:12;;;;;;;48.22;15.05;;;13.30;1.00;;;;;;5073995;28;20491;-78
2023/11/06 10:28:38;;;;;;;46.28;11.43;;;13.30;1.00;;;;;;5073607;28;20230;-78
2023/11/06 10:31:04;;;;;;;49.20;13.30;;;13.40;1.00;;;;;;5073540;28;20172;-78
2023/11/06 10:33:30;;;;;;;47.40;13.50;;;13.30;1.00;;;;;;5073531;28;20433;-77
2023/11/06 10:35:59;;;;;;;51.00;11.95;;;13.40;1.00;;;;;;5073600;28;20405;-77
2023/11/06 10:38:34;;;;;;;50.78;12.10;;;13.50;1.00;;;;;;5073335;28;20231;-78
2023/11/06 10:41:14;;;;;;;46.92;11.77;;;13.50;1.00;;;;;;5073802;28;20277;-77
2023/11/06 10:43:44;;;;;;;49.47;12.10;;;13.50;1.00;;;;;;5073206;28;20210;-77
2023/11/06 10:46:10;;;;;;;47.50;11.97;;;13.40;1.00;;;;;;5073089;28;20461;-77
2023/11/06 10:48:49;;;;;;;48.08;10.23;;;13.40;1.00;;;;;;5073589;28;20414;-77
2023/11/06 10:51:16;;;;;;;48.28;13.35;;;13.40;1.00;;;;;;5073682;28;20160;-77
2023/11/06 10:53:44;;;;;;;47.10;10.35;;;13.20;1.00;;;;;;5073345;28;20183;-78
2023/11/06 10:56:12;;;;;;;47.13;10.80;;;13.30;1.00;;;;;;5073338;28;20181;-78
2023/11/06 10:58:40;;;;;;;47.97;15.52;;;13.30;1.00;;;;;;5073070;28;20188;-78
2023/11/06 11:01:07;;;;;;;50.00;17.15;;;13.10;1.00;;;;;;5073457;28;20169;-78
2023/11/06 11:03:34;;;;;;;51.15;14.55;;;13.10;1.00;;;;;;5073273;28;20173;-77
2023/11/06 11:06:00;;;;;;;49.17;15.32;;;13.10;1.00;;;;;;5073214;28;20205;-78
2023/11/06 11:08:26;;;;;;;52.67;20.10;;;13.10;1.00;;;;;;5073176;28;20560;-77
2023/11/06 11:10:53;;;;;;;51.20;16.50;;;13.10;2.80;;;;;;5073643;28;20252;-78
2023/11/06 11:13:19;;;;;;;51.92;18.25;;;13.10;1.00;;;;;;5073035;28;20442;-77
2023/11/06 11:15:45;;;;;;;50.47;17.67;;;13.10;2.10;;;;;;5073063;28;20164;-77
2023/11/06 11:18:10;;;;;;;51.40;21.30;;;13.10;2.40;;;;;;5073016;28;20434;-77
2023/11/06 11:20:56;;;;;;;52.43;23.63;;;13.20;3.60;;;;;;5073466;28;20295;-77
2023/11/06 11:23:42;;;;;;;49.17;19.55;;;13.30;5.70;;;;;;5072973;28;20442;-77
2023/11/06 11:26:12;;;;;;;48.95;15.95;;;13.30;2.70;;;;;;5072961;28;20281;-77
2023/11/06 11:28:58;;;;;;;52.40;15.70;;;13.10;6.40;;;;;;5073234;28;20550;-77
2023/11/06 11:31:39;;;;;;;49.83;16.40;;;13.20;7.90;;;;;;5054860;28;20541;-77
2023/11/06 11:34:06;;;;;;;51.83;14.63;;;13.30;4.70;;;;;;5072865;28;20180;-77
2023/11/06 11:36:33;;;;;;;53.08;17.42;;;13.30;6.30;;;;;;5072850;28;20273;-77
2023/11/06 11:39:14;;;;;;;49.85;18.08;;;13.30;5.50;;;;;;5072876;28;20195;-77
2023/11/06 11:42:04;;;;;;;52.22;15.02;;;13.40;8.10;;;;;;5073203;28;20148;-77
2023/11/06 11:44:31;;;;;;;45.90;13.30;;;13.50;5.50;;;;;;5072807;28;20180;-77
2023/11/06 11:47:00;;;;;;;48.92;15.68;;;13.60;1.00;;;;;;5072819;28;20188;-77
2023/11/06 11:49:40;;;;;;;51.10;16.75;;;13.50;1.00;;;;;;5072798;28;20196;-77
2023/11/06 11:52:07;;;;;;;49.73;20.47;;;13.60;1.00;;;;;;5073061;28;20172;-78
2023/11/06 11:54:37;;;;;;;48.42;19.75;;;13.60;2.10;;;;;;5072748;28;20501;-77
2023/11/06 11:57:08;;;;;;;47.50;15.10;;;13.60;1.00;;;;;;5074546;28;20202;-77
2023/11/06 11:59:37;;;;;;;46.33;14.30;;;13.50;1.00;;;;;;5058463;28;20469;-77
2023/11/06 12:02:05;;;;;;;47.40;13.77;;;13.60;1.00;;;;;;5076663;28;20399;-78
2023/11/06 12:04:31;;;;;;;47.47;16.77;;;13.70;1.00;;;;;;5076455;28;20188;-78
2023/11/06 12:07:02;;;;;;;50.73;23.07;;;13.80;4.50;;;;;;5076475;28;20399;-77
2023/11/06 12:09:29;;;;;;;49.23;19.50;;;13.80;5.10;;;;;;5076602;28;20402;-77
2023/11/06 12:11:55;;;;;;;46.47;15.20;;;13.80;7.80;;;;;;5076619;28;20519;-77
2023/11/06 12:14:21;;;;;;;47.67;16.60;;;14.00;1.80;;;;;;5076233;28;20419;-78
2023/11/06 12:16:53;;;;;;;48.10;20.50;;;14.00;1.40;;;;;;5076187;28;20548;-78
2023/11/06 12:19:18;;;;;;;48.50;14.47;;;13.90;1.00;;;;;;5076548;28;20253;-78
2023/11/06 12:21:58;;;;;;;45.07;12.57;;;13.90;1.00;;;;;;5076177;28;20609;-77
2023/11/06 12:24:24;;;;;;;47.50;15.70;;;13.90;1.00;;;;;;5076273;28;20179;-77
2023/11/06 12:26:51;;;;;;;50.97;19.97;;;13.80;1.80;;;;;;5076022;28;20399;-78
2023/11/06 12:29:27;;;;;;;52.87;21.60;;;13.80;5.30;;;;;;5227258;22;20202;-77
2023/11/06 12:34:26;;;;;;;51.97;23.00;;;14.00;3.60;;;;;;5016203;28;20481;-77
2023/11/06 12:37:01;;;;;;;50.20;23.90;;;13.90;5.20;;;;;;5016765;28;20394;-78